Аэропорт: им. Гейдара Алиева. Баку

ICAO: UBBB

METAR:
2020-10-24 05:00:00
UBBB 240500Z 20012KT CAVOK 19/16 Q1021 R88/CLRD// NOSIG
METAR:
2020-10-23 23:14:00
TAF UBBB 232314Z 2400/2424 15008KT 8000 FEW007 TX22/2410Z TN10/2400Z TEMPO 2400/2404 3000 BR BCFG SCT003 BECMG 2404/2405 18016G26KT CAVOK TEMPO 2405/2414 20022G32KT SCT025 BECMG 2416/2418 19014KT